sensor_id;sensor_type;location;lat;lon;timestamp;temperature;humidity
66928;DHT22;59882;45.624;11.698;2023-12-07T00:00:35;2.80;80.70
66928;DHT22;59882;45.624;11.698;2023-12-07T00:03:01;2.70;80.70
66928;DHT22;59882;45.624;11.698;2023-12-07T00:05:26;2.70;80.70
66928;DHT22;59882;45.624;11.698;2023-12-07T00:07:52;2.70;80.70
66928;DHT22;59882;45.624;11.698;2023-12-07T00:10:17;2.60;80.70
66928;DHT22;59882;45.624;11.698;2023-12-07T00:12:43;2.60;80.70
66928;DHT22;59882;45.624;11.698;2023-12-07T00:15:09;2.60;80.60
66928;DHT22;59882;45.624;11.698;2023-12-07T00:17:34;2.50;80.60
66928;DHT22;59882;45.624;11.698;2023-12-07T00:20:00;2.50;80.70
66928;DHT22;59882;45.624;11.698;2023-12-07T00:22:26;2.50;80.80
66928;DHT22;59882;45.624;11.698;2023-12-07T00:24:53;2.50;80.80
66928;DHT22;59882;45.624;11.698;2023-12-07T00:27:19;2.50;80.80
66928;DHT22;59882;45.624;11.698;2023-12-07T00:29:45;2.50;80.80
66928;DHT22;59882;45.624;11.698;2023-12-07T00:32:10;2.50;80.80
66928;DHT22;59882;45.624;11.698;2023-12-07T00:34:36;2.40;80.90
66928;DHT22;59882;45.624;11.698;2023-12-07T00:37:02;2.40;80.90
66928;DHT22;59882;45.624;11.698;2023-12-07T00:39:28;2.50;80.90
66928;DHT22;59882;45.624;11.698;2023-12-07T00:41:54;2.40;80.90
66928;DHT22;59882;45.624;11.698;2023-12-07T00:44:20;2.40;80.90
66928;DHT22;59882;45.624;11.698;2023-12-07T00:46:45;2.40;80.90
66928;DHT22;59882;45.624;11.698;2023-12-07T00:49:11;2.40;80.90
66928;DHT22;59882;45.624;11.698;2023-12-07T00:51:37;2.40;81.00
66928;DHT22;59882;45.624;11.698;2023-12-07T00:54:03;2.40;80.90
66928;DHT22;59882;45.624;11.698;2023-12-07T00:56:29;2.40;80.80
66928;DHT22;59882;45.624;11.698;2023-12-07T00:58:54;2.40;80.80
66928;DHT22;59882;45.624;11.698;2023-12-07T01:01:20;2.50;80.80
66928;DHT22;59882;45.624;11.698;2023-12-07T01:03:45;2.50;80.70
66928;DHT22;59882;45.624;11.698;2023-12-07T01:06:11;2.40;80.80
66928;DHT22;59882;45.624;11.698;2023-12-07T01:08:37;2.40;80.80
66928;DHT22;59882;45.624;11.698;2023-12-07T01:11:04;2.40;80.70
66928;DHT22;59882;45.624;11.698;2023-12-07T01:13:30;2.40;80.80
66928;DHT22;59882;45.624;11.698;2023-12-07T01:15:56;2.30;80.90
66928;DHT22;59882;45.624;11.698;2023-12-07T01:18:21;2.30;81.00
66928;DHT22;59882;45.624;11.698;2023-12-07T01:20:47;2.30;80.90
66928;DHT22;59882;45.624;11.698;2023-12-07T01:23:14;2.30;80.90
66928;DHT22;59882;45.624;11.698;2023-12-07T01:25:39;2.30;81.00
66928;DHT22;59882;45.624;11.698;2023-12-07T01:28:05;2.30;81.00
66928;DHT22;59882;45.624;11.698;2023-12-07T01:30:31;2.20;81.00
66928;DHT22;59882;45.624;11.698;2023-12-07T01:32:56;2.20;81.10
66928;DHT22;59882;45.624;11.698;2023-12-07T01:35:22;2.20;81.10
66928;DHT22;59882;45.624;11.698;2023-12-07T01:37:48;2.10;81.20
66928;DHT22;59882;45.624;11.698;2023-12-07T01:40:14;2.10;81.30
66928;DHT22;59882;45.624;11.698;2023-12-07T01:42:40;2.10;81.20
66928;DHT22;59882;45.624;11.698;2023-12-07T01:45:06;2.10;81.30
66928;DHT22;59882;45.624;11.698;2023-12-07T01:47:34;2.10;81.30
66928;DHT22;59882;45.624;11.698;2023-12-07T01:50:00;2.00;81.40
66928;DHT22;59882;45.624;11.698;2023-12-07T01:52:30;2.00;81.50
66928;DHT22;59882;45.624;11.698;2023-12-07T01:54:57;2.00;81.60
66928;DHT22;59882;45.624;11.698;2023-12-07T01:57:24;2.00;81.80
66928;DHT22;59882;45.624;11.698;2023-12-07T01:59:50;2.00;82.00
66928;DHT22;59882;45.624;11.698;2023-12-07T02:02:16;2.00;81.90
66928;DHT22;59882;45.624;11.698;2023-12-07T02:04:41;2.10;81.80
66928;DHT22;59882;45.624;11.698;2023-12-07T02:07:07;2.10;81.80
66928;DHT22;59882;45.624;11.698;2023-12-07T02:09:33;2.00;81.70
66928;DHT22;59882;45.624;11.698;2023-12-07T02:11:59;2.00;81.60
66928;DHT22;59882;45.624;11.698;2023-12-07T02:14:26;2.00;81.50
66928;DHT22;59882;45.624;11.698;2023-12-07T02:16:57;1.90;81.40
66928;DHT22;59882;45.624;11.698;2023-12-07T02:22:37;1.90;81.60
66928;DHT22;59882;45.624;11.698;2023-12-07T02:25:08;1.90;81.70
66928;DHT22;59882;45.624;11.698;2023-12-07T02:27:41;1.90;81.60
66928;DHT22;59882;45.624;11.698;2023-12-07T02:30:09;1.90;81.60
66928;DHT22;59882;45.624;11.698;2023-12-07T02:32:36;2.00;81.50
66928;DHT22;59882;45.624;11.698;2023-12-07T02:35:03;1.90;81.40
66928;DHT22;59882;45.624;11.698;2023-12-07T02:37:33;1.90;81.30
66928;DHT22;59882;45.624;11.698;2023-12-07T02:39:59;1.90;81.40
66928;DHT22;59882;45.624;11.698;2023-12-07T02:42:26;1.80;81.40
66928;DHT22;59882;45.624;11.698;2023-12-07T02:44:53;1.90;81.40
66928;DHT22;59882;45.624;11.698;2023-12-07T02:47:19;1.90;81.50
66928;DHT22;59882;45.624;11.698;2023-12-07T02:49:44;1.90;81.40
66928;DHT22;59882;45.624;11.698;2023-12-07T02:52:10;1.90;81.40
66928;DHT22;59882;45.624;11.698;2023-12-07T02:54:36;1.90;81.40
66928;DHT22;59882;45.624;11.698;2023-12-07T02:57:01;1.90;81.40
66928;DHT22;59882;45.624;11.698;2023-12-07T02:59:27;1.80;81.30
66928;DHT22;59882;45.624;11.698;2023-12-07T03:01:53;1.80;81.30
66928;DHT22;59882;45.624;11.698;2023-12-07T03:04:19;1.80;81.20
66928;DHT22;59882;45.624;11.698;2023-12-07T03:06:44;1.80;81.20
66928;DHT22;59882;45.624;11.698;2023-12-07T03:09:10;1.80;81.30
66928;DHT22;59882;45.624;11.698;2023-12-07T03:11:35;1.70;81.30
66928;DHT22;59882;45.624;11.698;2023-12-07T03:14:01;1.80;81.40
66928;DHT22;59882;45.624;11.698;2023-12-07T03:16:27;1.80;81.40
66928;DHT22;59882;45.624;11.698;2023-12-07T03:18:52;1.80;81.30
66928;DHT22;59882;45.624;11.698;2023-12-07T03:21:18;1.70;81.30
66928;DHT22;59882;45.624;11.698;2023-12-07T03:23:43;1.70;81.20
66928;DHT22;59882;45.624;11.698;2023-12-07T03:26:09;1.70;81.20
66928;DHT22;59882;45.624;11.698;2023-12-07T03:28:34;1.70;81.30
66928;DHT22;59882;45.624;11.698;2023-12-07T03:31:00;1.70;81.30
66928;DHT22;59882;45.624;11.698;2023-12-07T03:33:26;1.60;81.30
66928;DHT22;59882;45.624;11.698;2023-12-07T03:35:51;1.60;81.30
66928;DHT22;59882;45.624;11.698;2023-12-07T03:38:17;1.70;81.30
66928;DHT22;59882;45.624;11.698;2023-12-07T03:40:42;1.70;81.30
66928;DHT22;59882;45.624;11.698;2023-12-07T03:43:08;1.60;81.30
66928;DHT22;59882;45.624;11.698;2023-12-07T03:45:33;1.60;81.20
66928;DHT22;59882;45.624;11.698;2023-12-07T03:47:59;1.60;81.20
66928;DHT22;59882;45.624;11.698;2023-12-07T03:50:25;1.60;81.20
66928;DHT22;59882;45.624;11.698;2023-12-07T03:52:50;1.60;81.00
66928;DHT22;59882;45.624;11.698;2023-12-07T03:55:16;1.50;81.10
66928;DHT22;59882;45.624;11.698;2023-12-07T03:57:41;1.40;81.10
66928;DHT22;59882;45.624;11.698;2023-12-07T04:00:10;1.40;81.20
66928;DHT22;59882;45.624;11.698;2023-12-07T04:02:36;1.40;81.20
66928;DHT22;59882;45.624;11.698;2023-12-07T04:05:01;1.30;81.30
66928;DHT22;59882;45.624;11.698;2023-12-07T04:07:30;1.30;81.40
66928;DHT22;59882;45.624;11.698;2023-12-07T04:09:56;1.30;81.40
66928;DHT22;59882;45.624;11.698;2023-12-07T04:12:24;1.30;81.50
66928;DHT22;59882;45.624;11.698;2023-12-07T04:14:50;1.30;81.60
66928;DHT22;59882;45.624;11.698;2023-12-07T04:17:17;1.30;81.60
66928;DHT22;59882;45.624;11.698;2023-12-07T04:19:43;1.30;81.60
66928;DHT22;59882;45.624;11.698;2023-12-07T04:22:08;1.30;81.60
66928;DHT22;59882;45.624;11.698;2023-12-07T04:24:34;1.30;81.60
66928;DHT22;59882;45.624;11.698;2023-12-07T04:26:59;1.30;81.60
66928;DHT22;59882;45.624;11.698;2023-12-07T04:29:25;1.30;81.70
66928;DHT22;59882;45.624;11.698;2023-12-07T04:31:51;1.30;81.90
66928;DHT22;59882;45.624;11.698;2023-12-07T04:34:16;1.30;81.90
66928;DHT22;59882;45.624;11.698;2023-12-07T04:36:42;1.30;81.90
66928;DHT22;59882;45.624;11.698;2023-12-07T04:39:07;1.20;81.80
66928;DHT22;59882;45.624;11.698;2023-12-07T04:41:33;1.20;81.80
66928;DHT22;59882;45.624;11.698;2023-12-07T04:43:59;1.20;81.70
66928;DHT22;59882;45.624;11.698;2023-12-07T04:46:24;1.20;81.70
66928;DHT22;59882;45.624;11.698;2023-12-07T04:48:50;1.20;81.80
66928;DHT22;59882;45.624;11.698;2023-12-07T04:51:16;1.20;81.90
66928;DHT22;59882;45.624;11.698;2023-12-07T04:53:41;1.20;81.90
66928;DHT22;59882;45.624;11.698;2023-12-07T04:56:07;1.20;81.90
66928;DHT22;59882;45.624;11.698;2023-12-07T04:58:33;1.10;81.80
66928;DHT22;59882;45.624;11.698;2023-12-07T05:00:58;1.10;81.70
66928;DHT22;59882;45.624;11.698;2023-12-07T05:03:25;1.10;81.60
66928;DHT22;59882;45.624;11.698;2023-12-07T05:05:50;1.10;81.60
66928;DHT22;59882;45.624;11.698;2023-12-07T05:08:16;1.00;81.70
66928;DHT22;59882;45.624;11.698;2023-12-07T05:10:41;1.10;81.70
66928;DHT22;59882;45.624;11.698;2023-12-07T05:13:07;1.00;81.70
66928;DHT22;59882;45.624;11.698;2023-12-07T05:15:32;1.00;81.60
66928;DHT22;59882;45.624;11.698;2023-12-07T05:17:58;1.00;81.60
66928;DHT22;59882;45.624;11.698;2023-12-07T05:20:24;0.90;81.60
66928;DHT22;59882;45.624;11.698;2023-12-07T05:22:51;0.90;81.60
66928;DHT22;59882;45.624;11.698;2023-12-07T05:25:17;0.90;81.60
66928;DHT22;59882;45.624;11.698;2023-12-07T05:27:44;0.80;81.70
66928;DHT22;59882;45.624;11.698;2023-12-07T05:30:10;0.80;81.70
66928;DHT22;59882;45.624;11.698;2023-12-07T05:32:36;0.80;82.10
66928;DHT22;59882;45.624;11.698;2023-12-07T05:35:01;0.80;82.30
66928;DHT22;59882;45.624;11.698;2023-12-07T05:37:27;0.80;82.40
66928;DHT22;59882;45.624;11.698;2023-12-07T05:39:53;0.80;82.40
66928;DHT22;59882;45.624;11.698;2023-12-07T05:42:19;0.80;82.40
66928;DHT22;59882;45.624;11.698;2023-12-07T05:44:45;0.80;82.40
66928;DHT22;59882;45.624;11.698;2023-12-07T05:47:10;0.80;82.50
66928;DHT22;59882;45.624;11.698;2023-12-07T05:49:36;0.80;82.30
66928;DHT22;59882;45.624;11.698;2023-12-07T05:52:02;0.80;82.20
66928;DHT22;59882;45.624;11.698;2023-12-07T05:54:28;0.80;82.30
66928;DHT22;59882;45.624;11.698;2023-12-07T05:56:54;0.80;82.50
66928;DHT22;59882;45.624;11.698;2023-12-07T05:59:19;0.70;82.70
66928;DHT22;59882;45.624;11.698;2023-12-07T06:01:45;0.70;82.70
66928;DHT22;59882;45.624;11.698;2023-12-07T06:04:11;0.70;82.70
66928;DHT22;59882;45.624;11.698;2023-12-07T06:06:38;0.70;82.60
66928;DHT22;59882;45.624;11.698;2023-12-07T06:09:04;0.70;82.70
66928;DHT22;59882;45.624;11.698;2023-12-07T06:11:31;0.70;82.60
66928;DHT22;59882;45.624;11.698;2023-12-07T06:13:57;0.70;82.70
66928;DHT22;59882;45.624;11.698;2023-12-07T06:16:24;0.70;82.80
66928;DHT22;59882;45.624;11.698;2023-12-07T06:18:51;0.80;82.80
66928;DHT22;59882;45.624;11.698;2023-12-07T06:21:16;0.70;82.70
66928;DHT22;59882;45.624;11.698;2023-12-07T06:23:42;0.70;82.70
66928;DHT22;59882;45.624;11.698;2023-12-07T06:26:07;0.70;82.60
66928;DHT22;59882;45.624;11.698;2023-12-07T06:28:33;0.70;82.70
66928;DHT22;59882;45.624;11.698;2023-12-07T06:31:05;0.70;82.70
66928;DHT22;59882;45.624;11.698;2023-12-07T06:33:32;0.80;82.70
66928;DHT22;59882;45.624;11.698;2023-12-07T06:35:58;0.80;82.80
66928;DHT22;59882;45.624;11.698;2023-12-07T06:38:24;0.80;82.90
66928;DHT22;59882;45.624;11.698;2023-12-07T06:40:49;0.80;82.90
66928;DHT22;59882;45.624;11.698;2023-12-07T06:43:15;0.80;82.70
66928;DHT22;59882;45.624;11.698;2023-12-07T06:45:41;0.80;82.60
66928;DHT22;59882;45.624;11.698;2023-12-07T06:48:06;0.80;82.60
66928;DHT22;59882;45.624;11.698;2023-12-07T06:50:32;0.80;82.60
66928;DHT22;59882;45.624;11.698;2023-12-07T06:52:57;0.80;82.60
66928;DHT22;59882;45.624;11.698;2023-12-07T06:55:23;0.80;82.60
66928;DHT22;59882;45.624;11.698;2023-12-07T06:57:48;0.90;82.70
66928;DHT22;59882;45.624;11.698;2023-12-07T07:00:14;0.90;82.50
66928;DHT22;59882;45.624;11.698;2023-12-07T07:02:40;0.90;82.40
66928;DHT22;59882;45.624;11.698;2023-12-07T07:05:06;0.90;82.40
66928;DHT22;59882;45.624;11.698;2023-12-07T07:07:32;0.90;82.40
66928;DHT22;59882;45.624;11.698;2023-12-07T07:09:58;0.90;82.40
66928;DHT22;59882;45.624;11.698;2023-12-07T07:12:24;0.90;82.30
66928;DHT22;59882;45.624;11.698;2023-12-07T07:14:49;0.90;82.30
66928;DHT22;59882;45.624;11.698;2023-12-07T07:17:15;0.90;82.30
66928;DHT22;59882;45.624;11.698;2023-12-07T07:19:41;1.00;82.30
66928;DHT22;59882;45.624;11.698;2023-12-07T07:22:07;1.00;82.30
66928;DHT22;59882;45.624;11.698;2023-12-07T07:24:34;1.00;82.30
66928;DHT22;59882;45.624;11.698;2023-12-07T07:27:00;1.00;82.20
66928;DHT22;59882;45.624;11.698;2023-12-07T07:29:26;1.00;82.30
66928;DHT22;59882;45.624;11.698;2023-12-07T07:31:53;1.00;82.30
66928;DHT22;59882;45.624;11.698;2023-12-07T07:34:18;1.00;82.40
66928;DHT22;59882;45.624;11.698;2023-12-07T07:36:44;1.00;82.40
66928;DHT22;59882;45.624;11.698;2023-12-07T07:39:09;1.10;82.40
66928;DHT22;59882;45.624;11.698;2023-12-07T07:41:36;1.10;82.40
66928;DHT22;59882;45.624;11.698;2023-12-07T07:44:02;1.20;82.60
66928;DHT22;59882;45.624;11.698;2023-12-07T07:46:28;1.20;82.70
66928;DHT22;59882;45.624;11.698;2023-12-07T07:48:53;1.30;82.70
66928;DHT22;59882;45.624;11.698;2023-12-07T07:51:19;1.30;82.70
66928;DHT22;59882;45.624;11.698;2023-12-07T07:53:44;1.30;82.70
66928;DHT22;59882;45.624;11.698;2023-12-07T07:56:10;1.40;82.70
66928;DHT22;59882;45.624;11.698;2023-12-07T07:58:36;1.40;82.80
66928;DHT22;59882;45.624;11.698;2023-12-07T08:01:02;1.50;82.70
66928;DHT22;59882;45.624;11.698;2023-12-07T08:03:27;1.50;82.90
66928;DHT22;59882;45.624;11.698;2023-12-07T08:05:53;1.60;82.90
66928;DHT22;59882;45.624;11.698;2023-12-07T08:08:19;1.60;82.80
66928;DHT22;59882;45.624;11.698;2023-12-07T08:10:44;1.70;82.90
66928;DHT22;59882;45.624;11.698;2023-12-07T08:13:10;1.80;82.90
66928;DHT22;59882;45.624;11.698;2023-12-07T08:15:35;1.80;82.90
66928;DHT22;59882;45.624;11.698;2023-12-07T08:18:01;1.80;82.90
66928;DHT22;59882;45.624;11.698;2023-12-07T08:20:27;1.90;82.90
66928;DHT22;59882;45.624;11.698;2023-12-07T08:22:53;1.90;82.80
66928;DHT22;59882;45.624;11.698;2023-12-07T08:25:18;2.00;82.90
66928;DHT22;59882;45.624;11.698;2023-12-07T08:27:44;2.00;82.90
66928;DHT22;59882;45.624;11.698;2023-12-07T08:30:11;2.10;82.90
66928;DHT22;59882;45.624;11.698;2023-12-07T08:32:38;2.10;82.90
66928;DHT22;59882;45.624;11.698;2023-12-07T08:35:04;2.20;82.80
66928;DHT22;59882;45.624;11.698;2023-12-07T08:37:31;2.20;82.70
66928;DHT22;59882;45.624;11.698;2023-12-07T08:39:58;2.30;82.70
66928;DHT22;59882;45.624;11.698;2023-12-07T08:42:23;2.40;82.90
66928;DHT22;59882;45.624;11.698;2023-12-07T08:44:49;2.40;83.20
66928;DHT22;59882;45.624;11.698;2023-12-07T08:47:14;2.50;82.90
66928;DHT22;59882;45.624;11.698;2023-12-07T08:49:40;2.60;82.80
66928;DHT22;59882;45.624;11.698;2023-12-07T08:52:06;2.60;82.60
66928;DHT22;59882;45.624;11.698;2023-12-07T08:54:32;2.70;82.60
66928;DHT22;59882;45.624;11.698;2023-12-07T08:56:57;2.80;82.40
66928;DHT22;59882;45.624;11.698;2023-12-07T08:59:23;2.80;82.20
66928;DHT22;59882;45.624;11.698;2023-12-07T09:01:49;2.90;82.20
66928;DHT22;59882;45.624;11.698;2023-12-07T09:04:14;3.00;82.50
66928;DHT22;59882;45.624;11.698;2023-12-07T09:06:40;3.10;83.20
66928;DHT22;59882;45.624;11.698;2023-12-07T09:09:06;3.10;82.30
66928;DHT22;59882;45.624;11.698;2023-12-07T09:11:31;3.20;82.10
66928;DHT22;59882;45.624;11.698;2023-12-07T09:13:57;3.30;82.20
66928;DHT22;59882;45.624;11.698;2023-12-07T09:16:23;3.30;82.30
66928;DHT22;59882;45.624;11.698;2023-12-07T09:18:49;3.40;82.40
66928;DHT22;59882;45.624;11.698;2023-12-07T09:21:15;3.50;82.50
66928;DHT22;59882;45.624;11.698;2023-12-07T09:23:41;3.60;82.80
66928;DHT22;59882;45.624;11.698;2023-12-07T09:26:07;3.60;83.40
66928;DHT22;59882;45.624;11.698;2023-12-07T09:28:33;3.70;83.70
66928;DHT22;59882;45.624;11.698;2023-12-07T09:30:59;3.80;83.40
66928;DHT22;59882;45.624;11.698;2023-12-07T09:33:25;3.90;83.50
66928;DHT22;59882;45.624;11.698;2023-12-07T09:35:50;4.00;83.50
66928;DHT22;59882;45.624;11.698;2023-12-07T09:38:17;4.00;83.10
66928;DHT22;59882;45.624;11.698;2023-12-07T09:40:42;4.10;82.80
66928;DHT22;59882;45.624;11.698;2023-12-07T09:43:08;4.20;82.50
66928;DHT22;59882;45.624;11.698;2023-12-07T09:45:34;4.30;82.20
66928;DHT22;59882;45.624;11.698;2023-12-07T09:48:00;4.30;81.90
66928;DHT22;59882;45.624;11.698;2023-12-07T09:50:26;4.30;81.60
66928;DHT22;59882;45.624;11.698;2023-12-07T09:52:55;4.40;81.50
66928;DHT22;59882;45.624;11.698;2023-12-07T09:55:22;4.40;81.40
66928;DHT22;59882;45.624;11.698;2023-12-07T09:57:51;4.50;81.30
66928;DHT22;59882;45.624;11.698;2023-12-07T10:00:17;4.60;81.30
66928;DHT22;59882;45.624;11.698;2023-12-07T10:02:45;4.60;81.20
66928;DHT22;59882;45.624;11.698;2023-12-07T10:05:12;4.70;81.20
66928;DHT22;59882;45.624;11.698;2023-12-07T10:07:43;4.80;81.10
66928;DHT22;59882;45.624;11.698;2023-12-07T10:10:10;4.80;81.10
66928;DHT22;59882;45.624;11.698;2023-12-07T10:15:14;5.00;80.60
66928;DHT22;59882;45.624;11.698;2023-12-07T10:20:14;5.20;79.70
66928;DHT22;59882;45.624;11.698;2023-12-07T10:22:40;5.30;79.80
66928;DHT22;59882;45.624;11.698;2023-12-07T10:25:05;5.30;79.60
66928;DHT22;59882;45.624;11.698;2023-12-07T10:27:31;5.40;79.50
66928;DHT22;59882;45.624;11.698;2023-12-07T10:29:58;5.40;79.40
66928;DHT22;59882;45.624;11.698;2023-12-07T10:32:25;5.50;78.90
66928;DHT22;59882;45.624;11.698;2023-12-07T10:34:52;5.50;79.10
66928;DHT22;59882;45.624;11.698;2023-12-07T10:37:18;5.60;79.70
66928;DHT22;59882;45.624;11.698;2023-12-07T10:39:44;5.80;80.50
66928;DHT22;59882;45.624;11.698;2023-12-07T10:42:10;5.90;80.20
66928;DHT22;59882;45.624;11.698;2023-12-07T10:44:41;6.00;79.70
66928;DHT22;59882;45.624;11.698;2023-12-07T10:47:09;6.20;78.10
66928;DHT22;59882;45.624;11.698;2023-12-07T10:49:38;6.30;78.50
66928;DHT22;59882;45.624;11.698;2023-12-07T10:52:07;6.30;76.50
66928;DHT22;59882;45.624;11.698;2023-12-07T10:55:07;6.40;77.50
66928;DHT22;59882;45.624;11.698;2023-12-07T10:57:34;6.40;77.30
66928;DHT22;59882;45.624;11.698;2023-12-07T11:00:00;6.50;76.70
66928;DHT22;59882;45.624;11.698;2023-12-07T11:02:27;6.50;76.60
66928;DHT22;59882;45.624;11.698;2023-12-07T11:04:57;6.60;76.90
66928;DHT22;59882;45.624;11.698;2023-12-07T11:07:26;6.60;76.60
66928;DHT22;59882;45.624;11.698;2023-12-07T11:10:05;6.70;76.40
66928;DHT22;59882;45.624;11.698;2023-12-07T11:13:08;6.80;75.90
66928;DHT22;59882;45.624;11.698;2023-12-07T11:15:24;6.80;75.80
66928;DHT22;59882;45.624;11.698;2023-12-07T11:17:55;6.90;76.20
66928;DHT22;59882;45.624;11.698;2023-12-07T11:20:40;6.90;75.90
66928;DHT22;59882;45.624;11.698;2023-12-07T11:23:16;7.10;75.70
66928;DHT22;59882;45.624;11.698;2023-12-07T11:25:44;7.10;74.80
66928;DHT22;59882;45.624;11.698;2023-12-07T11:28:10;7.20;74.80
66928;DHT22;59882;45.624;11.698;2023-12-07T11:30:37;7.20;74.70
66928;DHT22;59882;45.624;11.698;2023-12-07T11:33:04;7.30;75.30
66928;DHT22;59882;45.624;11.698;2023-12-07T11:35:30;7.40;74.60
66928;DHT22;59882;45.624;11.698;2023-12-07T11:38:09;7.50;74.30
66928;DHT22;59882;45.624;11.698;2023-12-07T11:40:45;7.60;74.70
66928;DHT22;59882;45.624;11.698;2023-12-07T11:43:30;7.70;74.50
66928;DHT22;59882;45.624;11.698;2023-12-07T11:45:56;7.80;74.10
66928;DHT22;59882;45.624;11.698;2023-12-07T11:48:21;7.90;73.90
66928;DHT22;59882;45.624;11.698;2023-12-07T11:51:02;8.00;73.10
66928;DHT22;59882;45.624;11.698;2023-12-07T11:53:29;8.10;73.20
66928;DHT22;59882;45.624;11.698;2023-12-07T11:55:56;8.20;73.50
66928;DHT22;59882;45.624;11.698;2023-12-07T11:58:27;8.30;72.60
66928;DHT22;59882;45.624;11.698;2023-12-07T12:00:54;9.10;71.00
66928;DHT22;59882;45.624;11.698;2023-12-07T12:03:20;10.90;66.00
66928;DHT22;59882;45.624;11.698;2023-12-07T12:05:46;13.20;57.60
66928;DHT22;59882;45.624;11.698;2023-12-07T12:08:12;15.50;51.70
66928;DHT22;59882;45.624;11.698;2023-12-07T12:10:39;17.80;44.70
66928;DHT22;59882;45.624;11.698;2023-12-07T12:13:05;19.60;45.80
66928;DHT22;59882;45.624;11.698;2023-12-07T12:15:31;21.40;42.70
66928;DHT22;59882;45.624;11.698;2023-12-07T12:17:58;22.90;40.50
66928;DHT22;59882;45.624;11.698;2023-12-07T12:20:24;24.00;38.30
66928;DHT22;59882;45.624;11.698;2023-12-07T12:22:51;25.10;33.20
66928;DHT22;59882;45.624;11.698;2023-12-07T12:25:39;26.20;29.20
66928;DHT22;59882;45.624;11.698;2023-12-07T12:28:06;27.00;31.40
66928;DHT22;59882;45.624;11.698;2023-12-07T12:30:32;27.80;28.00
66928;DHT22;59882;45.624;11.698;2023-12-07T12:32:59;28.30;28.20
66928;DHT22;59882;45.624;11.698;2023-12-07T12:35:28;28.80;25.90
66928;DHT22;59882;45.624;11.698;2023-12-07T12:37:54;29.20;26.90
66928;DHT22;59882;45.624;11.698;2023-12-07T12:40:22;29.40;27.60
66928;DHT22;59882;45.624;11.698;2023-12-07T12:42:52;29.60;26.70
66928;DHT22;59882;45.624;11.698;2023-12-07T12:45:18;29.60;26.50
66928;DHT22;59882;45.624;11.698;2023-12-07T12:47:45;29.70;24.60
66928;DHT22;59882;45.624;11.698;2023-12-07T12:50:12;29.80;24.10
66928;DHT22;59882;45.624;11.698;2023-12-07T12:52:40;29.80;23.50
66928;DHT22;59882;45.624;11.698;2023-12-07T12:55:11;29.80;23.10
66928;DHT22;59882;45.624;11.698;2023-12-07T12:57:38;29.60;24.40
66928;DHT22;59882;45.624;11.698;2023-12-07T13:00:05;29.60;23.80
66928;DHT22;59882;45.624;11.698;2023-12-07T13:02:33;29.60;25.20
66928;DHT22;59882;45.624;11.698;2023-12-07T13:04:58;29.60;24.30
66928;DHT22;59882;45.624;11.698;2023-12-07T13:07:24;29.60;24.50
66928;DHT22;59882;45.624;11.698;2023-12-07T13:09:50;29.50;24.50
66928;DHT22;59882;45.624;11.698;2023-12-07T13:12:16;29.30;24.20
66928;DHT22;59882;45.624;11.698;2023-12-07T13:14:42;29.10;23.70
66928;DHT22;59882;45.624;11.698;2023-12-07T13:17:07;28.90;23.70
66928;DHT22;59882;45.624;11.698;2023-12-07T13:19:33;28.40;25.60
66928;DHT22;59882;45.624;11.698;2023-12-07T13:22:02;27.70;26.40
66928;DHT22;59882;45.624;11.698;2023-12-07T13:24:29;27.00;25.80
66928;DHT22;59882;45.624;11.698;2023-12-07T13:26:54;26.20;27.50
66928;DHT22;59882;45.624;11.698;2023-12-07T13:29:22;25.30;28.10
66928;DHT22;59882;45.624;11.698;2023-12-07T13:31:48;24.30;28.80
66928;DHT22;59882;45.624;11.698;2023-12-07T13:34:15;23.50;30.10
66928;DHT22;59882;45.624;11.698;2023-12-07T13:36:40;22.90;30.80
66928;DHT22;59882;45.624;11.698;2023-12-07T13:39:06;22.70;31.80
66928;DHT22;59882;45.624;11.698;2023-12-07T13:41:34;22.50;31.60
66928;DHT22;59882;45.624;11.698;2023-12-07T13:43:59;22.40;32.30
66928;DHT22;59882;45.624;11.698;2023-12-07T13:46:26;22.20;33.20
66928;DHT22;59882;45.624;11.698;2023-12-07T13:48:52;21.90;32.10
66928;DHT22;59882;45.624;11.698;2023-12-07T13:51:18;21.60;33.70
66928;DHT22;59882;45.624;11.698;2023-12-07T13:53:44;21.10;33.60
66928;DHT22;59882;45.624;11.698;2023-12-07T13:56:09;20.50;34.10
66928;DHT22;59882;45.624;11.698;2023-12-07T13:58:35;19.90;35.00
66928;DHT22;59882;45.624;11.698;2023-12-07T14:01:01;18.90;36.30
66928;DHT22;59882;45.624;11.698;2023-12-07T14:03:27;18.10;37.80
66928;DHT22;59882;45.624;11.698;2023-12-07T14:05:53;17.30;39.40
66928;DHT22;59882;45.624;11.698;2023-12-07T14:08:18;16.50;40.70
66928;DHT22;59882;45.624;11.698;2023-12-07T14:10:44;15.90;41.90
66928;DHT22;59882;45.624;11.698;2023-12-07T14:13:10;15.20;43.10
66928;DHT22;59882;45.624;11.698;2023-12-07T14:15:36;14.60;44.90
66928;DHT22;59882;45.624;11.698;2023-12-07T14:18:02;14.10;46.20
66928;DHT22;59882;45.624;11.698;2023-12-07T14:20:28;13.70;47.10
66928;DHT22;59882;45.624;11.698;2023-12-07T14:22:55;13.30;48.30
66928;DHT22;59882;45.624;11.698;2023-12-07T14:25:20;12.80;50.20
66928;DHT22;59882;45.624;11.698;2023-12-07T14:27:46;12.50;50.60
66928;DHT22;59882;45.624;11.698;2023-12-07T14:30:12;12.10;51.60
66928;DHT22;59882;45.624;11.698;2023-12-07T14:32:38;11.80;51.50
66928;DHT22;59882;45.624;11.698;2023-12-07T14:35:06;11.60;52.70
66928;DHT22;59882;45.624;11.698;2023-12-07T14:37:32;11.30;53.90
66928;DHT22;59882;45.624;11.698;2023-12-07T14:39:58;11.20;54.50
66928;DHT22;59882;45.624;11.698;2023-12-07T14:42:24;11.00;54.10
66928;DHT22;59882;45.624;11.698;2023-12-07T14:44:49;10.90;54.30
66928;DHT22;59882;45.624;11.698;2023-12-07T14:47:15;10.80;56.10
66928;DHT22;59882;45.624;11.698;2023-12-07T14:49:41;10.70;55.90
66928;DHT22;59882;45.624;11.698;2023-12-07T14:52:07;10.60;56.40
66928;DHT22;59882;45.624;11.698;2023-12-07T14:54:35;10.50;57.10
66928;DHT22;59882;45.624;11.698;2023-12-07T14:57:01;10.40;57.70
66928;DHT22;59882;45.624;11.698;2023-12-07T14:59:28;10.30;57.20
66928;DHT22;59882;45.624;11.698;2023-12-07T15:01:54;10.20;58.70
66928;DHT22;59882;45.624;11.698;2023-12-07T15:04:20;10.10;59.10
66928;DHT22;59882;45.624;11.698;2023-12-07T15:06:45;10.00;59.20
66928;DHT22;59882;45.624;11.698;2023-12-07T15:09:11;9.90;59.60
66928;DHT22;59882;45.624;11.698;2023-12-07T15:11:37;9.80;59.80
66928;DHT22;59882;45.624;11.698;2023-12-07T15:14:02;9.80;60.20
66928;DHT22;59882;45.624;11.698;2023-12-07T15:16:29;9.70;59.80
66928;DHT22;59882;45.624;11.698;2023-12-07T15:18:55;9.60;59.90
66928;DHT22;59882;45.624;11.698;2023-12-07T15:21:21;9.60;60.20
66928;DHT22;59882;45.624;11.698;2023-12-07T15:23:48;9.50;60.50
66928;DHT22;59882;45.624;11.698;2023-12-07T15:26:14;9.40;60.40
66928;DHT22;59882;45.624;11.698;2023-12-07T15:28:42;9.30;60.80
66928;DHT22;59882;45.624;11.698;2023-12-07T15:31:07;9.30;61.10